createdAt,value
2023-04-28T00:00:08.818Z,5.40
2023-04-28T00:02:35.992Z,5.55
2023-04-28T00:05:02.981Z,5.05
2023-04-28T00:07:30.024Z,5.63
2023-04-28T00:09:57.038Z,5.90
2023-04-28T00:12:24.501Z,5.28
2023-04-28T00:14:51.689Z,5.47
2023-04-28T00:17:18.473Z,5.78
2023-04-28T00:19:45.317Z,5.05
2023-04-28T00:22:12.309Z,5.45
2023-04-28T00:24:39.062Z,5.30
2023-04-28T00:27:05.895Z,5.25
2023-04-28T00:29:32.968Z,5.25
2023-04-28T00:31:59.875Z,5.78
2023-04-28T00:34:26.737Z,4.65
2023-04-28T00:36:53.489Z,5.00
2023-04-28T00:39:23.193Z,5.20
2023-04-28T00:41:49.953Z,5.00
2023-04-28T00:44:17.718Z,5.00
2023-04-28T00:46:44.894Z,4.90
2023-04-28T00:49:12.269Z,5.70
2023-04-28T00:51:39.070Z,4.80
2023-04-28T00:54:07.527Z,5.22
2023-04-28T00:56:34.646Z,4.93
2023-04-28T00:59:01.425Z,5.28
2023-04-28T01:01:28.431Z,5.40
2023-04-28T01:03:55.621Z,5.20
2023-04-28T01:06:24.233Z,5.28
2023-04-28T01:08:54.043Z,4.95
2023-04-28T01:11:20.912Z,5.00
2023-04-28T01:14:01.684Z,4.88
2023-04-28T01:16:32.801Z,4.70
2023-04-28T01:19:01.328Z,4.97
2023-04-28T01:21:32.537Z,4.40
2023-04-28T01:24:06.636Z,4.32
2023-04-28T01:26:33.684Z,5.03
2023-04-28T01:29:01.684Z,4.95
2023-04-28T01:31:30.926Z,4.50
2023-04-28T01:33:58.418Z,4.70
2023-04-28T01:36:27.229Z,4.22
2023-04-28T01:38:54.900Z,4.60
2023-04-28T01:41:22.419Z,4.72
2023-04-28T01:43:49.544Z,4.38
2023-04-28T01:46:16.414Z,4.88
2023-04-28T01:48:43.201Z,5.18
2023-04-28T01:51:10.297Z,5.07
2023-04-28T01:53:38.714Z,4.50
2023-04-28T01:56:05.593Z,5.10
2023-04-28T01:58:32.406Z,4.40
2023-04-28T02:00:59.276Z,5.10
2023-04-28T02:03:28.065Z,4.53
2023-04-28T02:05:55.523Z,5.15
2023-04-28T02:08:22.355Z,4.88
2023-04-28T02:10:49.205Z,4.95
2023-04-28T02:13:17.170Z,4.50
2023-04-28T02:15:44.308Z,4.82
2023-04-28T02:18:11.462Z,5.38
2023-04-28T02:20:40.756Z,4.13
2023-04-28T02:23:08.929Z,4.22
2023-04-28T02:25:35.715Z,4.57
2023-04-28T02:28:04.007Z,5.28
2023-04-28T02:30:30.897Z,4.10
2023-04-28T02:32:57.709Z,4.32
2023-04-28T02:35:25.612Z,5.00
2023-04-28T02:37:52.800Z,4.70
2023-04-28T02:40:19.870Z,4.25
2023-04-28T02:42:47.849Z,4.38
2023-04-28T02:45:14.799Z,4.13
2023-04-28T02:47:41.758Z,4.40
2023-04-28T02:50:09.384Z,4.30
2023-04-28T02:52:36.314Z,4.57
2023-04-28T02:55:04.672Z,4.80
2023-04-28T02:57:31.522Z,4.45
2023-04-28T02:59:58.441Z,4.20
2023-04-28T03:02:28.101Z,4.88
2023-04-28T03:04:55.008Z,4.32
2023-04-28T03:07:23.335Z,4.18
2023-04-28T03:09:50.138Z,4.90
2023-04-28T03:12:17.061Z,4.50
2023-04-28T03:14:46.159Z,4.15
2023-04-28T03:17:14.281Z,4.75
2023-04-28T03:19:41.382Z,4.20
2023-04-28T03:22:08.401Z,4.10
2023-04-28T03:24:35.400Z,4.43
2023-04-28T03:27:03.733Z,4.00
2023-04-28T03:29:30.736Z,4.05
2023-04-28T03:31:57.645Z,5.03
2023-04-28T03:34:24.564Z,4.47
2023-04-28T03:36:51.464Z,4.20
2023-04-28T03:39:25.790Z,4.18
2023-04-28T03:41:52.531Z,4.28
2023-04-28T03:44:37.750Z,4.38
2023-04-28T03:47:06.694Z,4.35
2023-04-28T03:49:33.604Z,4.47
2023-04-28T03:52:00.482Z,4.35
2023-04-28T03:54:27.263Z,4.45
2023-04-28T03:56:54.143Z,4.75
2023-04-28T03:59:21.086Z,4.68
2023-04-28T04:01:49.458Z,4.88
2023-04-28T04:04:16.836Z,4.70
2023-04-28T04:06:44.443Z,4.90
2023-04-28T04:09:12.485Z,4.55
2023-04-28T04:11:40.767Z,4.60
2023-04-28T04:14:07.659Z,5.40
2023-04-28T04:16:36.859Z,4.93
2023-04-28T04:19:05.002Z,4.88
2023-04-28T04:21:53.723Z,4.68
2023-04-28T04:24:20.552Z,4.40
2023-04-28T04:26:47.684Z,4.22
2023-04-28T04:29:36.530Z,4.63
2023-04-28T04:32:08.321Z,4.88
2023-04-28T04:34:35.358Z,5.00
2023-04-28T04:37:02.391Z,5.25
2023-04-28T04:39:29.685Z,4.88
2023-04-28T04:41:56.467Z,4.85
2023-04-28T04:44:43.467Z,5.25
2023-04-28T04:47:17.508Z,5.22
2023-04-28T04:49:44.642Z,5.07
2023-04-28T04:52:11.562Z,5.43
2023-04-28T04:54:38.359Z,5.15
2023-04-28T04:57:06.679Z,4.93
2023-04-28T04:59:53.397Z,5.85
2023-04-28T05:02:21.419Z,4.95
2023-04-28T05:04:48.974Z,5.20
2023-04-28T05:07:16.055Z,5.45
2023-04-28T05:09:42.890Z,5.47
2023-04-28T05:12:09.719Z,5.38
2023-04-28T05:14:37.455Z,5.10
2023-04-28T05:17:04.400Z,5.75
2023-04-28T05:19:36.361Z,5.57
2023-04-28T05:22:03.657Z,6.15
2023-04-28T05:24:31.756Z,6.10
2023-04-28T05:26:59.615Z,6.07
2023-04-28T05:29:26.578Z,6.90
2023-04-28T05:31:54.012Z,6.13
2023-04-28T05:34:22.924Z,6.47
2023-04-28T05:36:50.092Z,6.97
2023-04-28T05:39:18.380Z,6.78
2023-04-28T05:41:45.302Z,6.93
2023-04-28T05:44:12.248Z,6.75
2023-04-28T05:46:39.976Z,6.60
2023-04-28T05:49:06.956Z,7.22
2023-04-28T05:51:37.462Z,6.88
2023-04-28T05:54:04.440Z,6.85
2023-04-28T05:56:35.714Z,7.10
2023-04-28T05:59:04.325Z,7.47
2023-04-28T06:01:32.305Z,6.68
2023-04-28T06:03:59.727Z,7.47
2023-04-28T06:06:27.742Z,7.72
2023-04-28T06:08:54.698Z,7.20
2023-04-28T06:11:22.450Z,7.70
2023-04-28T06:13:51.183Z,7.85
2023-04-28T06:16:19.108Z,7.65
2023-04-28T06:18:48.514Z,8.02
2023-04-28T06:21:17.531Z,8.05
2023-04-28T06:23:44.416Z,7.88
2023-04-28T06:26:11.299Z,8.23
2023-04-28T06:28:39.713Z,8.80
2023-04-28T06:31:08.890Z,8.55
2023-04-28T06:33:35.810Z,8.55
2023-04-28T06:36:03.393Z,8.73
2023-04-28T06:38:30.394Z,8.75
2023-04-28T06:40:57.229Z,9.18
2023-04-28T06:43:24.081Z,9.48
2023-04-28T06:46:05.917Z,9.38
2023-04-28T06:48:32.843Z,9.43
2023-04-28T06:50:59.784Z,9.80
2023-04-28T06:53:26.620Z,9.98
2023-04-28T06:55:53.492Z,9.52
2023-04-28T06:58:21.051Z,9.88
2023-04-28T07:00:48.391Z,9.38
2023-04-28T07:03:15.513Z,10.05
2023-04-28T07:05:42.445Z,10.27
2023-04-28T07:08:09.342Z,9.80
2023-04-28T07:10:36.270Z,10.43
2023-04-28T07:13:03.150Z,9.85
2023-04-28T07:15:30.046Z,10.65
2023-04-28T07:17:57.035Z,10.93
2023-04-28T07:20:23.926Z,11.55
2023-04-28T07:22:50.828Z,10.95
2023-04-28T07:25:17.713Z,11.90
2023-04-28T07:27:46.853Z,12.27
2023-04-28T07:30:26.768Z,11.60
2023-04-28T07:32:54.649Z,11.40
2023-04-28T07:35:22.094Z,11.43
2023-04-28T07:37:48.980Z,11.18
2023-04-28T07:40:16.724Z,11.75
2023-04-28T07:42:43.941Z,12.02
2023-04-28T07:45:11.564Z,11.73
2023-04-28T07:47:38.885Z,12.65
2023-04-28T07:50:06.982Z,11.68
2023-04-28T07:52:34.439Z,11.63
2023-04-28T07:55:02.813Z,11.27
2023-04-28T07:57:30.300Z,12.27
2023-04-28T07:59:57.172Z,11.68
2023-04-28T08:02:24.267Z,11.18
2023-04-28T08:04:51.473Z,11.55
2023-04-28T08:07:18.558Z,12.85
2023-04-28T08:09:47.654Z,11.80
2023-04-28T08:12:15.536Z,11.80
2023-04-28T08:14:42.711Z,13.20
2023-04-28T08:17:09.910Z,12.18
2023-04-28T08:19:36.956Z,13.10
2023-04-28T08:22:07.243Z,12.73
2023-04-28T08:24:34.520Z,13.18
2023-04-28T08:27:05.686Z,13.57
2023-04-28T08:29:33.169Z,14.15
2023-04-28T08:32:01.793Z,13.75
2023-04-28T08:34:29.286Z,14.27
2023-04-28T08:36:56.120Z,14.80
2023-04-28T08:39:23.673Z,15.43
2023-04-28T08:41:50.765Z,14.70
2023-04-28T08:44:18.436Z,15.10
2023-04-28T08:46:49.683Z,15.13
2023-04-28T08:49:18.817Z,14.43
2023-04-28T08:51:54.410Z,15.00
2023-04-28T08:54:26.942Z,15.70
2023-04-28T08:56:56.961Z,15.05
2023-04-28T08:59:24.270Z,15.25
2023-04-28T09:01:51.856Z,15.23
2023-04-28T09:04:20.093Z,14.10
2023-04-28T09:06:47.513Z,15.05
2023-04-28T09:09:32.962Z,14.95
2023-04-28T09:12:04.513Z,15.27
2023-04-28T09:14:36.857Z,15.50
2023-04-28T09:17:12.147Z,15.77
2023-04-28T09:19:42.734Z,15.82
2023-04-28T09:22:24.980Z,14.88
2023-04-28T09:24:55.149Z,14.70
2023-04-28T09:27:28.305Z,15.68
2023-04-28T09:29:55.436Z,15.50
2023-04-28T09:32:24.265Z,15.68
2023-04-28T09:34:56.695Z,15.38
2023-04-28T09:37:27.303Z,14.27
2023-04-28T09:39:55.384Z,13.32
2023-04-28T09:42:45.890Z,12.85
2023-04-28T09:45:15.202Z,12.65
2023-04-28T09:47:48.027Z,12.30
2023-04-28T09:50:17.505Z,11.73
2023-04-28T09:52:57.053Z,11.48
2023-04-28T09:55:25.266Z,12.13
2023-04-28T09:57:55.181Z,11.70
2023-04-28T10:00:24.108Z,11.18
2023-04-28T10:02:52.530Z,11.60
2023-04-28T10:05:21.898Z,12.43
2023-04-28T10:07:49.492Z,11.20
2023-04-28T10:10:17.018Z,12.68
2023-04-28T10:12:44.859Z,11.52
2023-04-28T10:15:13.470Z,11.43
2023-04-28T10:17:40.483Z,12.38
2023-04-28T10:20:09.141Z,13.38
2023-04-28T10:23:20.482Z,12.25
2023-04-28T10:25:57.059Z,12.95
2023-04-28T10:28:24.823Z,12.73
2023-04-28T10:31:24.936Z,12.13
2023-04-28T10:33:51.786Z,13.18
2023-04-28T10:36:54.566Z,13.30
2023-04-28T10:39:21.427Z,13.65
2023-04-28T10:41:48.935Z,12.80
2023-04-28T10:44:28.504Z,13.15
2023-04-28T10:47:03.008Z,14.02
2023-04-28T10:50:07.761Z,12.55
2023-04-28T10:52:40.731Z,13.90
2023-04-28T10:55:36.089Z,14.13
2023-04-28T10:58:29.921Z,13.18
2023-04-28T11:01:24.680Z,12.68
2023-04-28T11:04:08.032Z,13.02
2023-04-28T11:06:39.936Z,12.50
2023-04-28T11:09:12.602Z,12.75
2023-04-28T11:11:58.996Z,12.30
2023-04-28T11:14:25.826Z,11.65
2023-04-28T11:17:00.634Z,10.13
2023-04-28T11:19:33.913Z,9.88
2023-04-28T11:22:04.225Z,9.43
2023-04-28T11:24:32.121Z,8.40
2023-04-28T11:27:00.674Z,7.60
2023-04-28T11:29:40.732Z,7.07
2023-04-28T11:32:10.176Z,7.90
2023-04-28T11:34:37.864Z,6.40
2023-04-28T11:37:07.071Z,4.95
2023-04-28T11:39:35.012Z,4.07
2023-04-28T11:42:09.938Z,2.83
2023-04-28T11:44:37.006Z,2.75
2023-04-28T11:47:05.713Z,2.50
2023-04-28T11:49:50.405Z,2.20
2023-04-28T11:52:17.271Z,1.77
2023-04-28T11:54:44.236Z,1.60
2023-04-28T11:57:19.675Z,1.20
2023-04-28T11:59:47.862Z,2.00
2023-04-28T12:02:16.975Z,1.50
2023-04-28T12:04:44.905Z,1.55
2023-04-28T12:07:17.596Z,1.73
2023-04-28T12:10:13.486Z,2.03
2023-04-28T12:12:51.089Z,2.50
2023-04-28T12:15:22.385Z,3.40
2023-04-28T12:17:50.576Z,3.90
2023-04-28T12:20:38.495Z,3.58
2023-04-28T12:23:06.205Z,3.45
2023-04-28T12:25:34.971Z,4.63
2023-04-28T12:28:08.336Z,4.88
2023-04-28T12:30:43.780Z,3.85
2023-04-28T12:33:29.005Z,3.80
2023-04-28T12:35:59.676Z,4.22
2023-04-28T12:38:27.190Z,4.25
2023-04-28T12:40:55.076Z,4.97
2023-04-28T12:43:23.952Z,4.97
2023-04-28T12:45:53.047Z,4.45
2023-04-28T12:48:20.589Z,4.63
2023-04-28T12:50:47.416Z,4.18
2023-04-28T12:53:14.213Z,4.20
2023-04-28T12:55:41.091Z,4.32
2023-04-28T12:58:07.883Z,4.70
2023-04-28T13:00:34.694Z,4.20
2023-04-28T13:03:01.656Z,3.40
2023-04-28T13:05:28.545Z,3.15
2023-04-28T13:07:55.600Z,3.03
2023-04-28T13:10:23.654Z,2.90
2023-04-28T13:12:50.575Z,2.60
2023-04-28T13:15:17.585Z,2.40
2023-04-28T13:17:46.417Z,2.60
2023-04-28T13:20:13.366Z,2.70
2023-04-28T13:22:40.342Z,2.45
2023-04-28T13:25:07.806Z,2.53
2023-04-28T13:27:35.212Z,2.50
2023-04-28T13:30:03.950Z,2.30
2023-04-28T13:32:31.732Z,2.30
2023-04-28T13:34:58.493Z,1.95
2023-04-28T13:37:25.510Z,1.70
2023-04-28T13:39:52.345Z,1.63
2023-04-28T13:42:19.077Z,2.03
2023-04-28T13:44:49.003Z,1.60
2023-04-28T13:47:16.225Z,1.90
2023-04-28T13:49:43.352Z,2.42
2023-04-28T13:52:10.224Z,2.17
2023-04-28T13:54:37.114Z,2.25
2023-04-28T13:57:04.097Z,2.60
2023-04-28T13:59:31.032Z,2.90
2023-04-28T14:01:57.832Z,2.75
2023-04-28T14:04:24.937Z,2.65
2023-04-28T14:06:52.637Z,3.25
2023-04-28T14:09:19.546Z,3.15
2023-04-28T14:11:46.373Z,4.03
2023-04-28T14:14:13.163Z,3.75
2023-04-28T14:16:40.053Z,4.13
2023-04-28T14:19:07.288Z,5.38
2023-04-28T14:21:34.497Z,5.75
2023-04-28T14:24:01.425Z,5.55
2023-04-28T14:26:28.341Z,5.63
2023-04-28T14:28:55.080Z,6.25
2023-04-28T14:31:22.321Z,7.55
2023-04-28T14:33:49.278Z,8.18
2023-04-28T14:36:16.130Z,7.60
2023-04-28T14:38:42.881Z,8.27
2023-04-28T14:41:09.852Z,8.27
2023-04-28T14:43:37.842Z,9.38
2023-04-28T14:46:05.572Z,8.60
2023-04-28T14:48:33.680Z,9.15
2023-04-28T14:51:00.975Z,9.43
2023-04-28T14:53:27.873Z,7.72
2023-04-28T14:55:59.445Z,9.00
2023-04-28T14:58:34.263Z,8.23
2023-04-28T15:01:01.604Z,7.75
2023-04-28T15:03:28.580Z,23.75
2023-04-28T15:05:55.573Z,10.95
2023-04-28T15:08:22.304Z,7.88
2023-04-28T15:10:49.148Z,8.15
2023-04-28T15:13:16.205Z,8.32
2023-04-28T15:15:43.062Z,8.38
2023-04-28T15:18:10.005Z,8.25
2023-04-28T15:20:38.233Z,7.53
2023-04-28T15:23:05.118Z,8.05
2023-04-28T15:25:31.945Z,6.97
2023-04-28T15:27:58.953Z,6.80
2023-04-28T15:30:25.916Z,6.07
2023-04-28T15:32:52.846Z,6.78
2023-04-28T15:35:19.692Z,6.20
2023-04-28T15:37:47.772Z,7.10
2023-04-28T15:40:17.157Z,6.90
2023-04-28T15:42:52.603Z,7.50
2023-04-28T15:45:21.710Z,8.60
2023-04-28T15:47:54.831Z,7.85
2023-04-28T15:50:22.175Z,8.80
2023-04-28T15:52:49.998Z,8.95
2023-04-28T15:55:19.860Z,8.98
2023-04-28T15:57:48.404Z,9.65
2023-04-28T16:00:16.378Z,8.40
2023-04-28T16:02:44.473Z,9.23
2023-04-28T16:05:12.478Z,9.13
2023-04-28T16:07:40.872Z,10.07
2023-04-28T16:10:11.917Z,9.82
2023-04-28T16:12:40.185Z,9.25
2023-04-28T16:15:09.888Z,9.40
2023-04-28T16:17:38.586Z,9.45
2023-04-28T16:20:11.010Z,9.07
2023-04-28T16:22:39.742Z,8.52
2023-04-28T16:25:07.383Z,9.15
2023-04-28T16:27:37.446Z,9.15
2023-04-28T16:30:08.719Z,9.10
2023-04-28T16:32:38.427Z,8.40
2023-04-28T16:35:06.420Z,8.57
2023-04-28T16:37:33.621Z,8.07
2023-04-28T16:40:00.511Z,6.72
2023-04-28T16:42:27.335Z,6.95
2023-04-28T16:44:54.874Z,5.65
2023-04-28T16:47:21.864Z,6.32
2023-04-28T16:49:48.963Z,5.43
2023-04-28T16:52:16.668Z,5.32
2023-04-28T16:54:43.807Z,5.30
2023-04-28T16:57:10.997Z,5.70
2023-04-28T16:59:37.819Z,4.68
2023-04-28T17:02:05.001Z,4.47
2023-04-28T17:04:32.346Z,4.15
2023-04-28T17:06:59.670Z,3.35
2023-04-28T17:09:27.489Z,2.40
2023-04-28T17:11:54.885Z,2.30
2023-04-28T17:14:21.701Z,2.35
2023-04-28T17:16:48.521Z,2.17
2023-04-28T17:19:15.492Z,2.03
2023-04-28T17:21:42.402Z,1.80
2023-04-28T17:24:09.143Z,2.08
2023-04-28T17:26:36.417Z,2.28
2023-04-28T17:29:03.947Z,2.00
2023-04-28T17:31:31.009Z,2.20
2023-04-28T17:33:59.587Z,2.28
2023-04-28T17:36:27.181Z,2.42
2023-04-28T17:38:55.126Z,3.13
2023-04-28T17:41:22.781Z,2.95
2023-04-28T17:43:53.766Z,3.20
2023-04-28T17:46:21.698Z,3.75
2023-04-28T17:48:49.032Z,3.90
2023-04-28T17:51:15.909Z,4.03
2023-04-28T17:53:43.174Z,5.05
2023-04-28T17:56:10.838Z,5.10
2023-04-28T17:58:37.721Z,5.97
2023-04-28T18:01:07.264Z,6.30
2023-04-28T18:03:36.721Z,6.10
2023-04-28T18:06:07.647Z,7.68
2023-04-28T18:08:37.544Z,9.80
2023-04-28T18:11:04.873Z,9.82
2023-04-28T18:13:33.239Z,8.98
2023-04-28T18:16:00.774Z,8.70
2023-04-28T18:18:29.815Z,10.75
2023-04-28T18:20:59.610Z,10.65
2023-04-28T18:23:27.282Z,10.75
2023-04-28T18:25:54.153Z,11.20
2023-04-28T18:28:21.052Z,12.43
2023-04-28T18:30:47.959Z,11.35
2023-04-28T18:33:14.811Z,12.50
2023-04-28T18:35:41.669Z,12.82
2023-04-28T18:38:08.450Z,12.75
2023-04-28T18:40:38.573Z,14.18
2023-04-28T18:43:07.661Z,15.32
2023-04-28T18:45:41.235Z,14.68
2023-04-28T18:48:09.633Z,15.07
2023-04-28T18:50:36.836Z,15.00
2023-04-28T18:53:05.327Z,15.32
2023-04-28T18:55:35.366Z,15.93
2023-04-28T18:58:02.792Z,14.88
2023-04-28T19:00:30.799Z,15.88
2023-04-28T19:02:57.881Z,16.45
2023-04-28T19:05:25.745Z,15.55
2023-04-28T19:07:52.561Z,15.68
2023-04-28T19:10:19.597Z,15.05
2023-04-28T19:12:46.525Z,15.85
2023-04-28T19:15:13.663Z,15.68
2023-04-28T19:17:40.710Z,17.90
2023-04-28T19:20:08.748Z,16.35
2023-04-28T19:22:41.466Z,17.48
2023-04-28T19:25:08.835Z,17.10
2023-04-28T19:27:40.684Z,17.77
2023-04-28T19:30:11.501Z,18.48
2023-04-28T19:32:39.656Z,17.42
2023-04-28T19:35:08.384Z,17.90
2023-04-28T19:37:35.737Z,18.17
2023-04-28T19:40:04.921Z,18.45
2023-04-28T19:42:33.534Z,19.73
2023-04-28T19:45:00.699Z,20.08
2023-04-28T19:47:31.441Z,18.50
2023-04-28T19:49:58.344Z,20.52
2023-04-28T19:52:25.313Z,21.10
2023-04-28T19:54:52.322Z,21.77
2023-04-28T19:57:19.759Z,21.15
2023-04-28T19:59:50.211Z,21.75
2023-04-28T20:02:18.780Z,24.15
2023-04-28T20:04:46.257Z,24.25
2023-04-28T20:07:14.037Z,24.13
2023-04-28T20:09:41.091Z,25.05
2023-04-28T20:12:09.116Z,25.05
2023-04-28T20:14:37.537Z,23.67
2023-04-28T20:17:05.527Z,23.73
2023-04-28T20:19:32.658Z,23.92
2023-04-28T20:22:05.485Z,24.35
2023-04-28T20:24:34.714Z,24.08
2023-04-28T20:27:03.227Z,24.27
2023-04-28T20:29:37.048Z,24.55
2023-04-28T20:32:04.988Z,26.15
2023-04-28T20:34:32.147Z,26.52
2023-04-28T20:37:03.478Z,26.90
2023-04-28T20:39:30.679Z,28.23
2023-04-28T20:41:59.336Z,27.05
2023-04-28T20:44:26.350Z,27.55
2023-04-28T20:46:53.401Z,28.60
2023-04-28T20:49:20.292Z,29.08
2023-04-28T20:51:47.765Z,30.95
2023-04-28T20:54:15.118Z,29.17
2023-04-28T20:56:42.887Z,28.58
2023-04-28T20:59:09.828Z,28.38
2023-04-28T21:01:36.830Z,28.70
2023-04-28T21:04:03.798Z,28.00
2023-04-28T21:06:30.861Z,26.38
2023-04-28T21:08:57.688Z,24.50
2023-04-28T21:11:24.536Z,23.58
2023-04-28T21:13:51.368Z,23.00
2023-04-28T21:16:21.423Z,24.02
2023-04-28T21:18:49.807Z,25.00
2023-04-28T21:21:16.839Z,24.42
2023-04-28T21:23:44.171Z,24.23
2023-04-28T21:26:11.370Z,21.50
2023-04-28T21:28:39.884Z,25.42
2023-04-28T21:31:06.998Z,23.10
2023-04-28T21:33:33.907Z,23.33
2023-04-28T21:36:07.888Z,23.55
2023-04-28T21:38:36.887Z,23.40
2023-04-28T21:41:03.846Z,23.20
2023-04-28T21:43:30.796Z,24.63
2023-04-28T21:45:57.633Z,22.90
2023-04-28T21:48:24.481Z,23.48
2023-04-28T21:50:51.376Z,22.13
2023-04-28T21:53:18.172Z,22.05
2023-04-28T21:55:45.150Z,21.63
2023-04-28T21:58:12.204Z,22.85
2023-04-28T22:00:43.447Z,22.17
2023-04-28T22:03:11.205Z,21.20
2023-04-28T22:05:40.406Z,21.33
2023-04-28T22:08:07.639Z,22.08
2023-04-28T22:10:36.515Z,20.30
2023-04-28T22:13:03.934Z,18.67
2023-04-28T22:15:30.877Z,18.02
2023-04-28T22:17:58.209Z,16.70
2023-04-28T22:20:25.224Z,16.98
2023-04-28T22:22:52.436Z,16.67
2023-04-28T22:25:19.572Z,16.70
2023-04-28T22:27:46.387Z,16.58
2023-04-28T22:30:13.852Z,15.27
2023-04-28T22:32:44.395Z,14.77
2023-04-28T22:35:16.381Z,15.93
2023-04-28T22:37:43.590Z,15.02
2023-04-28T22:40:11.065Z,14.98
2023-04-28T22:42:40.475Z,15.10
2023-04-28T22:45:10.024Z,15.10
2023-04-28T22:47:39.478Z,14.63
2023-04-28T22:50:11.250Z,14.25
2023-04-28T22:52:38.448Z,14.60
2023-04-28T22:55:06.418Z,13.95
2023-04-28T22:57:33.375Z,15.90
2023-04-28T23:00:00.292Z,14.48
2023-04-28T23:02:27.298Z,14.35
2023-04-28T23:04:54.382Z,13.95
2023-04-28T23:07:21.258Z,14.68
2023-04-28T23:09:48.302Z,13.88
2023-04-28T23:12:15.583Z,15.25
2023-04-28T23:14:42.354Z,15.43
2023-04-28T23:17:09.251Z,15.05
2023-04-28T23:19:38.750Z,15.30
2023-04-28T23:22:07.586Z,16.33
2023-04-28T23:24:36.871Z,16.65
2023-04-28T23:27:04.523Z,16.50
2023-04-28T23:29:31.751Z,14.82
2023-04-28T23:31:58.673Z,17.25
2023-04-28T23:34:25.875Z,19.23
2023-04-28T23:36:52.724Z,19.40
2023-04-28T23:39:19.481Z,19.38
2023-04-28T23:41:46.528Z,20.65
2023-04-28T23:44:13.362Z,21.23
2023-04-28T23:46:40.226Z,20.30
2023-04-28T23:49:07.113Z,21.95
2023-04-28T23:51:33.955Z,20.52
2023-04-28T23:54:01.790Z,21.98
2023-04-28T23:56:28.962Z,22.60
2023-04-28T23:58:56.026Z,21.25
